sensor_id;sensor_type;location;lat;lon;timestamp;P1;durP1;ratioP1;P2;durP2;ratioP2
13421;SDS011;6782;55.904;13.396;2024-02-21T00:00:11;45.90;;;18.63;;
13421;SDS011;6782;55.904;13.396;2024-02-21T00:02:58;52.57;;;18.03;;
13421;SDS011;6782;55.904;13.396;2024-02-21T00:05:47;48.97;;;18.27;;
13421;SDS011;6782;55.904;13.396;2024-02-21T00:08:34;44.97;;;17.30;;
13421;SDS011;6782;55.904;13.396;2024-02-21T00:11:21;42.60;;;17.10;;
13421;SDS011;6782;55.904;13.396;2024-02-21T00:14:09;47.60;;;17.33;;
13421;SDS011;6782;55.904;13.396;2024-02-21T00:16:57;46.07;;;18.47;;
13421;SDS011;6782;55.904;13.396;2024-02-21T00:19:44;53.77;;;19.33;;
13421;SDS011;6782;55.904;13.396;2024-02-21T00:22:31;42.57;;;18.13;;
13421;SDS011;6782;55.904;13.396;2024-02-21T00:25:19;48.73;;;19.37;;
13421;SDS011;6782;55.904;13.396;2024-02-21T00:28:06;54.37;;;18.10;;
13421;SDS011;6782;55.904;13.396;2024-02-21T00:30:53;49.93;;;19.63;;
13421;SDS011;6782;55.904;13.396;2024-02-21T00:33:42;50.03;;;20.43;;
13421;SDS011;6782;55.904;13.396;2024-02-21T00:36:29;49.53;;;19.50;;
13421;SDS011;6782;55.904;13.396;2024-02-21T00:39:16;48.63;;;18.90;;
13421;SDS011;6782;55.904;13.396;2024-02-21T00:42:03;46.60;;;19.87;;
13421;SDS011;6782;55.904;13.396;2024-02-21T00:44:52;51.60;;;22.50;;
13421;SDS011;6782;55.904;13.396;2024-02-21T00:47:39;48.10;;;21.83;;
13421;SDS011;6782;55.904;13.396;2024-02-21T00:50:28;54.70;;;21.13;;
13421;SDS011;6782;55.904;13.396;2024-02-21T00:53:15;49.13;;;21.33;;
13421;SDS011;6782;55.904;13.396;2024-02-21T00:56:02;47.97;;;21.83;;
13421;SDS011;6782;55.904;13.396;2024-02-21T00:58:50;58.27;;;22.30;;
13421;SDS011;6782;55.904;13.396;2024-02-21T01:01:37;57.40;;;23.00;;
13421;SDS011;6782;55.904;13.396;2024-02-21T01:04:27;51.20;;;22.93;;
13421;SDS011;6782;55.904;13.396;2024-02-21T01:07:15;57.97;;;22.27;;
13421;SDS011;6782;55.904;13.396;2024-02-21T01:10:03;52.67;;;22.23;;
13421;SDS011;6782;55.904;13.396;2024-02-21T01:12:51;48.33;;;21.47;;
13421;SDS011;6782;55.904;13.396;2024-02-21T01:15:38;48.50;;;20.27;;
13421;SDS011;6782;55.904;13.396;2024-02-21T01:18:25;48.40;;;21.07;;
13421;SDS011;6782;55.904;13.396;2024-02-21T01:21:12;43.77;;;21.13;;
13421;SDS011;6782;55.904;13.396;2024-02-21T01:24:01;55.17;;;21.43;;
13421;SDS011;6782;55.904;13.396;2024-02-21T01:26:48;45.50;;;21.60;;
13421;SDS011;6782;55.904;13.396;2024-02-21T01:29:35;42.80;;;20.80;;
13421;SDS011;6782;55.904;13.396;2024-02-21T01:32:22;46.97;;;21.00;;
13421;SDS011;6782;55.904;13.396;2024-02-21T01:35:10;45.17;;;21.90;;
13421;SDS011;6782;55.904;13.396;2024-02-21T01:37:57;46.63;;;20.73;;
13421;SDS011;6782;55.904;13.396;2024-02-21T01:40:45;43.67;;;22.33;;
13421;SDS011;6782;55.904;13.396;2024-02-21T01:43:33;42.90;;;21.47;;
13421;SDS011;6782;55.904;13.396;2024-02-21T01:46:20;44.80;;;21.20;;
13421;SDS011;6782;55.904;13.396;2024-02-21T01:49:07;43.07;;;21.70;;
13421;SDS011;6782;55.904;13.396;2024-02-21T01:51:55;42.47;;;22.43;;
13421;SDS011;6782;55.904;13.396;2024-02-21T01:54:42;42.00;;;20.97;;
13421;SDS011;6782;55.904;13.396;2024-02-21T01:57:31;34.40;;;20.80;;
13421;SDS011;6782;55.904;13.396;2024-02-21T02:00:19;48.97;;;22.60;;
13421;SDS011;6782;55.904;13.396;2024-02-21T02:03:07;43.20;;;22.93;;
13421;SDS011;6782;55.904;13.396;2024-02-21T02:06:02;43.97;;;22.20;;
13421;SDS011;6782;55.904;13.396;2024-02-21T02:08:51;44.53;;;24.40;;
13421;SDS011;6782;55.904;13.396;2024-02-21T02:11:38;46.97;;;25.70;;
13421;SDS011;6782;55.904;13.396;2024-02-21T02:14:27;40.70;;;22.90;;
13421;SDS011;6782;55.904;13.396;2024-02-21T02:17:14;44.67;;;24.53;;
13421;SDS011;6782;55.904;13.396;2024-02-21T02:20:02;44.93;;;25.10;;
13421;SDS011;6782;55.904;13.396;2024-02-21T02:22:50;42.40;;;24.67;;
13421;SDS011;6782;55.904;13.396;2024-02-21T02:25:39;52.60;;;25.77;;
13421;SDS011;6782;55.904;13.396;2024-02-21T02:28:26;53.87;;;26.13;;
13421;SDS011;6782;55.904;13.396;2024-02-21T02:31:13;49.30;;;25.87;;
13421;SDS011;6782;55.904;13.396;2024-02-21T02:34:00;50.70;;;25.93;;
13421;SDS011;6782;55.904;13.396;2024-02-21T02:36:48;47.57;;;26.70;;
13421;SDS011;6782;55.904;13.396;2024-02-21T02:39:35;52.60;;;28.23;;
13421;SDS011;6782;55.904;13.396;2024-02-21T02:42:23;53.87;;;26.37;;
13421;SDS011;6782;55.904;13.396;2024-02-21T02:45:10;47.43;;;26.57;;
13421;SDS011;6782;55.904;13.396;2024-02-21T02:47:58;48.30;;;26.97;;
13421;SDS011;6782;55.904;13.396;2024-02-21T02:50:45;48.43;;;28.00;;
13421;SDS011;6782;55.904;13.396;2024-02-21T02:53:32;53.70;;;28.00;;
13421;SDS011;6782;55.904;13.396;2024-02-21T02:56:19;62.77;;;30.13;;
13421;SDS011;6782;55.904;13.396;2024-02-21T02:59:08;59.90;;;29.90;;
13421;SDS011;6782;55.904;13.396;2024-02-21T03:01:56;57.73;;;29.40;;
13421;SDS011;6782;55.904;13.396;2024-02-21T03:04:43;58.67;;;30.23;;
13421;SDS011;6782;55.904;13.396;2024-02-21T03:07:30;56.60;;;29.77;;
13421;SDS011;6782;55.904;13.396;2024-02-21T03:10:18;52.97;;;27.47;;
13421;SDS011;6782;55.904;13.396;2024-02-21T03:13:05;62.03;;;31.30;;
13421;SDS011;6782;55.904;13.396;2024-02-21T03:15:54;72.00;;;30.30;;
13421;SDS011;6782;55.904;13.396;2024-02-21T03:18:41;63.67;;;31.03;;
13421;SDS011;6782;55.904;13.396;2024-02-21T03:21:28;69.97;;;31.73;;
13421;SDS011;6782;55.904;13.396;2024-02-21T03:24:16;64.30;;;31.10;;
13421;SDS011;6782;55.904;13.396;2024-02-21T03:27:03;64.43;;;30.50;;
13421;SDS011;6782;55.904;13.396;2024-02-21T03:29:51;69.63;;;31.73;;
13421;SDS011;6782;55.904;13.396;2024-02-21T03:32:39;67.30;;;31.20;;
13421;SDS011;6782;55.904;13.396;2024-02-21T03:35:27;65.70;;;31.07;;
13421;SDS011;6782;55.904;13.396;2024-02-21T03:38:14;74.77;;;33.10;;
13421;SDS011;6782;55.904;13.396;2024-02-21T03:41:01;61.57;;;32.03;;
13421;SDS011;6782;55.904;13.396;2024-02-21T03:43:48;64.73;;;31.30;;
13421;SDS011;6782;55.904;13.396;2024-02-21T03:46:35;69.60;;;32.00;;
13421;SDS011;6782;55.904;13.396;2024-02-21T03:49:24;58.33;;;29.03;;
13421;SDS011;6782;55.904;13.396;2024-02-21T03:52:11;58.33;;;28.27;;
13421;SDS011;6782;55.904;13.396;2024-02-21T03:54:58;44.90;;;24.77;;
13421;SDS011;6782;55.904;13.396;2024-02-21T03:57:45;48.17;;;25.50;;
13421;SDS011;6782;55.904;13.396;2024-02-21T04:00:32;46.57;;;24.63;;
13421;SDS011;6782;55.904;13.396;2024-02-21T04:03:19;48.07;;;25.23;;
13421;SDS011;6782;55.904;13.396;2024-02-21T04:06:08;48.53;;;25.57;;
13421;SDS011;6782;55.904;13.396;2024-02-21T04:08:56;46.00;;;25.00;;
13421;SDS011;6782;55.904;13.396;2024-02-21T04:11:44;51.30;;;26.93;;
13421;SDS011;6782;55.904;13.396;2024-02-21T04:14:31;54.40;;;26.93;;
13421;SDS011;6782;55.904;13.396;2024-02-21T04:17:18;43.37;;;24.63;;
13421;SDS011;6782;55.904;13.396;2024-02-21T04:20:05;40.07;;;23.37;;
13421;SDS011;6782;55.904;13.396;2024-02-21T04:22:55;41.27;;;22.17;;
13421;SDS011;6782;55.904;13.396;2024-02-21T04:25:43;38.03;;;22.07;;
13421;SDS011;6782;55.904;13.396;2024-02-21T04:28:30;32.53;;;19.50;;
13421;SDS011;6782;55.904;13.396;2024-02-21T04:31:17;36.00;;;19.13;;
13421;SDS011;6782;55.904;13.396;2024-02-21T04:34:05;33.50;;;18.60;;
13421;SDS011;6782;55.904;13.396;2024-02-21T04:36:53;31.87;;;18.50;;
13421;SDS011;6782;55.904;13.396;2024-02-21T04:39:41;34.57;;;20.00;;
13421;SDS011;6782;55.904;13.396;2024-02-21T04:42:28;35.30;;;18.90;;
13421;SDS011;6782;55.904;13.396;2024-02-21T04:45:15;30.90;;;18.33;;
13421;SDS011;6782;55.904;13.396;2024-02-21T04:48:03;29.50;;;16.67;;
13421;SDS011;6782;55.904;13.396;2024-02-21T04:50:50;24.73;;;14.60;;
13421;SDS011;6782;55.904;13.396;2024-02-21T04:53:37;22.17;;;14.40;;
13421;SDS011;6782;55.904;13.396;2024-02-21T04:56:26;18.67;;;12.33;;
13421;SDS011;6782;55.904;13.396;2024-02-21T04:59:13;15.97;;;10.57;;
13421;SDS011;6782;55.904;13.396;2024-02-21T05:02:00;15.23;;;10.63;;
13421;SDS011;6782;55.904;13.396;2024-02-21T05:04:47;13.77;;;9.33;;
13421;SDS011;6782;55.904;13.396;2024-02-21T05:07:34;13.17;;;10.17;;
13421;SDS011;6782;55.904;13.396;2024-02-21T05:10:21;16.20;;;10.90;;
13421;SDS011;6782;55.904;13.396;2024-02-21T05:13:10;15.57;;;11.40;;
13421;SDS011;6782;55.904;13.396;2024-02-21T05:15:57;19.47;;;12.13;;
13421;SDS011;6782;55.904;13.396;2024-02-21T05:18:46;19.10;;;12.63;;
13421;SDS011;6782;55.904;13.396;2024-02-21T05:21:33;22.27;;;13.03;;
13421;SDS011;6782;55.904;13.396;2024-02-21T05:24:21;23.43;;;14.57;;
13421;SDS011;6782;55.904;13.396;2024-02-21T05:27:08;26.90;;;15.30;;
13421;SDS011;6782;55.904;13.396;2024-02-21T05:29:56;20.93;;;13.33;;
13421;SDS011;6782;55.904;13.396;2024-02-21T05:32:43;23.67;;;13.93;;
13421;SDS011;6782;55.904;13.396;2024-02-21T05:35:30;29.73;;;17.07;;
13421;SDS011;6782;55.904;13.396;2024-02-21T05:38:17;22.60;;;14.87;;
13421;SDS011;6782;55.904;13.396;2024-02-21T05:41:05;26.20;;;15.97;;
13421;SDS011;6782;55.904;13.396;2024-02-21T05:43:52;27.17;;;17.67;;
13421;SDS011;6782;55.904;13.396;2024-02-21T05:46:41;31.77;;;17.97;;
13421;SDS011;6782;55.904;13.396;2024-02-21T05:49:28;29.07;;;17.70;;
13421;SDS011;6782;55.904;13.396;2024-02-21T05:52:15;31.43;;;18.20;;
13421;SDS011;6782;55.904;13.396;2024-02-21T05:55:03;30.10;;;18.63;;
13421;SDS011;6782;55.904;13.396;2024-02-21T05:57:53;28.33;;;18.43;;
13421;SDS011;6782;55.904;13.396;2024-02-21T06:00:40;24.70;;;16.07;;
13421;SDS011;6782;55.904;13.396;2024-02-21T06:03:29;30.70;;;16.73;;
13421;SDS011;6782;55.904;13.396;2024-02-21T06:06:17;26.03;;;16.23;;
13421;SDS011;6782;55.904;13.396;2024-02-21T06:09:04;22.07;;;15.20;;
13421;SDS011;6782;55.904;13.396;2024-02-21T06:11:51;24.87;;;16.33;;
13421;SDS011;6782;55.904;13.396;2024-02-21T06:14:38;24.77;;;15.23;;
13421;SDS011;6782;55.904;13.396;2024-02-21T06:17:25;20.73;;;14.17;;
13421;SDS011;6782;55.904;13.396;2024-02-21T06:20:15;22.87;;;14.93;;
13421;SDS011;6782;55.904;13.396;2024-02-21T06:23:03;23.63;;;14.73;;
13421;SDS011;6782;55.904;13.396;2024-02-21T06:25:50;22.07;;;14.23;;
13421;SDS011;6782;55.904;13.396;2024-02-21T06:28:37;20.33;;;14.10;;
13421;SDS011;6782;55.904;13.396;2024-02-21T06:31:26;19.23;;;13.47;;
13421;SDS011;6782;55.904;13.396;2024-02-21T06:34:14;21.63;;;12.63;;
13421;SDS011;6782;55.904;13.396;2024-02-21T06:37:04;15.70;;;10.93;;
13421;SDS011;6782;55.904;13.396;2024-02-21T06:39:53;16.37;;;11.23;;
13421;SDS011;6782;55.904;13.396;2024-02-21T06:42:40;14.67;;;9.80;;
13421;SDS011;6782;55.904;13.396;2024-02-21T06:45:27;13.60;;;8.73;;
13421;SDS011;6782;55.904;13.396;2024-02-21T06:48:14;14.73;;;8.93;;
13421;SDS011;6782;55.904;13.396;2024-02-21T06:51:02;12.57;;;7.43;;
13421;SDS011;6782;55.904;13.396;2024-02-21T06:53:51;11.23;;;7.63;;
13421;SDS011;6782;55.904;13.396;2024-02-21T06:56:39;17.23;;;8.23;;
13421;SDS011;6782;55.904;13.396;2024-02-21T06:59:27;12.27;;;8.10;;
13421;SDS011;6782;55.904;13.396;2024-02-21T07:02:14;9.17;;;6.97;;
13421;SDS011;6782;55.904;13.396;2024-02-21T07:05:01;12.73;;;6.83;;
13421;SDS011;6782;55.904;13.396;2024-02-21T07:07:49;11.23;;;6.70;;
13421;SDS011;6782;55.904;13.396;2024-02-21T07:10:37;11.07;;;6.37;;
13421;SDS011;6782;55.904;13.396;2024-02-21T07:13:24;10.30;;;5.53;;
13421;SDS011;6782;55.904;13.396;2024-02-21T07:16:13;9.23;;;5.33;;
13421;SDS011;6782;55.904;13.396;2024-02-21T07:19:00;8.30;;;5.00;;
13421;SDS011;6782;55.904;13.396;2024-02-21T07:21:48;11.40;;;5.57;;
13421;SDS011;6782;55.904;13.396;2024-02-21T07:24:35;12.47;;;5.17;;
13421;SDS011;6782;55.904;13.396;2024-02-21T07:27:24;13.37;;;4.90;;
13421;SDS011;6782;55.904;13.396;2024-02-21T07:30:16;9.60;;;4.63;;
13421;SDS011;6782;55.904;13.396;2024-02-21T07:33:04;8.17;;;4.40;;
13421;SDS011;6782;55.904;13.396;2024-02-21T07:35:52;11.47;;;4.47;;
13421;SDS011;6782;55.904;13.396;2024-02-21T07:38:39;12.50;;;4.13;;
13421;SDS011;6782;55.904;13.396;2024-02-21T07:41:27;9.10;;;3.93;;
13421;SDS011;6782;55.904;13.396;2024-02-21T07:44:17;12.83;;;4.23;;
13421;SDS011;6782;55.904;13.396;2024-02-21T07:47:04;9.97;;;3.83;;
13421;SDS011;6782;55.904;13.396;2024-02-21T07:49:52;11.50;;;3.90;;
13421;SDS011;6782;55.904;13.396;2024-02-21T07:52:39;9.47;;;3.97;;
13421;SDS011;6782;55.904;13.396;2024-02-21T07:55:26;8.77;;;3.40;;
13421;SDS011;6782;55.904;13.396;2024-02-21T07:58:13;11.60;;;3.90;;
13421;SDS011;6782;55.904;13.396;2024-02-21T08:01:02;12.13;;;3.97;;
13421;SDS011;6782;55.904;13.396;2024-02-21T08:03:50;8.50;;;3.43;;
13421;SDS011;6782;55.904;13.396;2024-02-21T08:06:38;15.77;;;4.07;;
13421;SDS011;6782;55.904;13.396;2024-02-21T08:09:25;14.10;;;3.50;;
13421;SDS011;6782;55.904;13.396;2024-02-21T08:12:12;10.90;;;3.50;;
13421;SDS011;6782;55.904;13.396;2024-02-21T08:15:00;14.80;;;3.77;;
13421;SDS011;6782;55.904;13.396;2024-02-21T08:17:50;14.80;;;3.40;;
13421;SDS011;6782;55.904;13.396;2024-02-21T08:20:37;13.47;;;3.73;;
13421;SDS011;6782;55.904;13.396;2024-02-21T08:23:24;14.83;;;4.00;;
13421;SDS011;6782;55.904;13.396;2024-02-21T08:26:11;11.97;;;3.37;;
13421;SDS011;6782;55.904;13.396;2024-02-21T08:28:59;15.63;;;3.70;;
13421;SDS011;6782;55.904;13.396;2024-02-21T08:31:46;13.90;;;3.17;;
13421;SDS011;6782;55.904;13.396;2024-02-21T08:34:35;13.83;;;3.63;;
13421;SDS011;6782;55.904;13.396;2024-02-21T08:37:22;10.53;;;3.00;;
13421;SDS011;6782;55.904;13.396;2024-02-21T08:40:10;13.13;;;3.23;;
13421;SDS011;6782;55.904;13.396;2024-02-21T08:42:57;10.23;;;3.17;;
13421;SDS011;6782;55.904;13.396;2024-02-21T08:45:45;13.00;;;3.30;;
13421;SDS011;6782;55.904;13.396;2024-02-21T08:48:32;13.20;;;3.50;;
13421;SDS011;6782;55.904;13.396;2024-02-21T08:51:21;12.20;;;3.47;;
13421;SDS011;6782;55.904;13.396;2024-02-21T08:54:08;13.67;;;3.50;;
13421;SDS011;6782;55.904;13.396;2024-02-21T08:56:56;11.27;;;3.30;;
13421;SDS011;6782;55.904;13.396;2024-02-21T08:59:48;10.43;;;2.80;;
13421;SDS011;6782;55.904;13.396;2024-02-21T09:02:37;9.73;;;3.00;;
13421;SDS011;6782;55.904;13.396;2024-02-21T09:05:28;7.63;;;2.70;;
13421;SDS011;6782;55.904;13.396;2024-02-21T09:08:17;9.50;;;2.87;;
13421;SDS011;6782;55.904;13.396;2024-02-21T09:11:05;7.43;;;2.57;;
13421;SDS011;6782;55.904;13.396;2024-02-21T09:13:53;8.07;;;2.37;;
13421;SDS011;6782;55.904;13.396;2024-02-21T09:16:40;11.07;;;3.20;;
13421;SDS011;6782;55.904;13.396;2024-02-21T09:19:27;10.03;;;3.03;;
13421;SDS011;6782;55.904;13.396;2024-02-21T09:22:15;13.70;;;3.00;;
13421;SDS011;6782;55.904;13.396;2024-02-21T09:25:04;10.00;;;3.03;;
13421;SDS011;6782;55.904;13.396;2024-02-21T09:27:53;10.03;;;3.07;;
13421;SDS011;6782;55.904;13.396;2024-02-21T09:30:40;12.20;;;3.10;;
13421;SDS011;6782;55.904;13.396;2024-02-21T09:33:28;11.90;;;3.23;;
13421;SDS011;6782;55.904;13.396;2024-02-21T09:36:15;8.13;;;3.00;;
13421;SDS011;6782;55.904;13.396;2024-02-21T09:39:02;8.97;;;2.70;;
13421;SDS011;6782;55.904;13.396;2024-02-21T09:41:53;9.70;;;2.57;;
13421;SDS011;6782;55.904;13.396;2024-02-21T09:44:45;8.60;;;2.70;;
13421;SDS011;6782;55.904;13.396;2024-02-21T09:47:35;7.87;;;3.10;;
13421;SDS011;6782;55.904;13.396;2024-02-21T09:50:30;9.23;;;2.57;;
13421;SDS011;6782;55.904;13.396;2024-02-21T09:53:21;10.13;;;2.83;;
13421;SDS011;6782;55.904;13.396;2024-02-21T09:56:11;8.30;;;2.10;;
13421;SDS011;6782;55.904;13.396;2024-02-21T09:59:00;5.70;;;1.93;;
13421;SDS011;6782;55.904;13.396;2024-02-21T10:01:50;3.90;;;2.00;;
13421;SDS011;6782;55.904;13.396;2024-02-21T10:04:37;4.50;;;2.13;;
13421;SDS011;6782;55.904;13.396;2024-02-21T10:07:26;3.30;;;2.00;;
13421;SDS011;6782;55.904;13.396;2024-02-21T10:10:13;4.40;;;1.90;;
13421;SDS011;6782;55.904;13.396;2024-02-21T10:13:02;3.40;;;1.87;;
13421;SDS011;6782;55.904;13.396;2024-02-21T10:16:01;4.03;;;1.70;;
13421;SDS011;6782;55.904;13.396;2024-02-21T10:18:53;4.23;;;1.80;;
13421;SDS011;6782;55.904;13.396;2024-02-21T10:21:41;7.03;;;2.00;;
13421;SDS011;6782;55.904;13.396;2024-02-21T10:24:28;4.80;;;1.87;;
13421;SDS011;6782;55.904;13.396;2024-02-21T10:27:15;4.40;;;1.73;;
13421;SDS011;6782;55.904;13.396;2024-02-21T10:30:02;4.83;;;2.03;;
13421;SDS011;6782;55.904;13.396;2024-02-21T10:32:52;5.43;;;2.10;;
13421;SDS011;6782;55.904;13.396;2024-02-21T10:35:40;5.57;;;2.00;;
13421;SDS011;6782;55.904;13.396;2024-02-21T10:38:28;5.50;;;1.90;;
13421;SDS011;6782;55.904;13.396;2024-02-21T10:41:15;4.03;;;1.70;;
13421;SDS011;6782;55.904;13.396;2024-02-21T10:44:03;4.33;;;2.00;;
13421;SDS011;6782;55.904;13.396;2024-02-21T10:46:52;4.73;;;1.77;;
13421;SDS011;6782;55.904;13.396;2024-02-21T10:49:42;6.87;;;2.53;;
13421;SDS011;6782;55.904;13.396;2024-02-21T10:52:36;5.63;;;2.17;;
13421;SDS011;6782;55.904;13.396;2024-02-21T10:55:35;6.83;;;2.77;;
13421;SDS011;6782;55.904;13.396;2024-02-21T10:58:25;9.93;;;2.90;;
13421;SDS011;6782;55.904;13.396;2024-02-21T11:01:15;8.27;;;2.70;;
13421;SDS011;6782;55.904;13.396;2024-02-21T11:04:04;9.43;;;2.77;;
13421;SDS011;6782;55.904;13.396;2024-02-21T11:06:54;14.47;;;3.27;;
13421;SDS011;6782;55.904;13.396;2024-02-21T11:09:50;9.77;;;3.40;;
13421;SDS011;6782;55.904;13.396;2024-02-21T11:12:38;9.67;;;3.30;;
13421;SDS011;6782;55.904;13.396;2024-02-21T11:15:25;11.27;;;3.03;;
13421;SDS011;6782;55.904;13.396;2024-02-21T11:18:22;8.07;;;2.90;;
13421;SDS011;6782;55.904;13.396;2024-02-21T11:21:10;10.57;;;3.77;;
13421;SDS011;6782;55.904;13.396;2024-02-21T11:23:59;9.83;;;3.67;;
13421;SDS011;6782;55.904;13.396;2024-02-21T11:26:47;11.23;;;3.60;;
13421;SDS011;6782;55.904;13.396;2024-02-21T11:29:39;12.13;;;3.93;;
13421;SDS011;6782;55.904;13.396;2024-02-21T11:32:27;11.47;;;3.53;;
13421;SDS011;6782;55.904;13.396;2024-02-21T11:35:18;16.57;;;3.70;;
13421;SDS011;6782;55.904;13.396;2024-02-21T11:38:07;14.80;;;3.40;;
13421;SDS011;6782;55.904;13.396;2024-02-21T11:40:57;8.90;;;3.70;;
13421;SDS011;6782;55.904;13.396;2024-02-21T11:43:45;12.73;;;3.67;;
13421;SDS011;6782;55.904;13.396;2024-02-21T11:46:34;12.17;;;3.27;;
13421;SDS011;6782;55.904;13.396;2024-02-21T11:49:24;14.77;;;3.43;;
13421;SDS011;6782;55.904;13.396;2024-02-21T11:52:13;11.83;;;2.90;;
13421;SDS011;6782;55.904;13.396;2024-02-21T11:55:01;10.60;;;3.57;;
13421;SDS011;6782;55.904;13.396;2024-02-21T11:57:55;13.67;;;3.17;;
13421;SDS011;6782;55.904;13.396;2024-02-21T12:00:43;9.57;;;3.30;;
13421;SDS011;6782;55.904;13.396;2024-02-21T12:03:30;9.60;;;3.20;;
13421;SDS011;6782;55.904;13.396;2024-02-21T12:06:19;7.43;;;2.73;;
13421;SDS011;6782;55.904;13.396;2024-02-21T12:09:08;12.50;;;3.30;;
13421;SDS011;6782;55.904;13.396;2024-02-21T12:11:58;13.20;;;3.10;;
13421;SDS011;6782;55.904;13.396;2024-02-21T12:14:53;12.80;;;3.53;;
13421;SDS011;6782;55.904;13.396;2024-02-21T12:17:43;7.40;;;2.93;;
13421;SDS011;6782;55.904;13.396;2024-02-21T12:20:31;10.47;;;3.37;;
13421;SDS011;6782;55.904;13.396;2024-02-21T12:23:18;11.67;;;3.63;;
13421;SDS011;6782;55.904;13.396;2024-02-21T12:26:06;13.37;;;3.00;;
13421;SDS011;6782;55.904;13.396;2024-02-21T12:28:53;12.43;;;3.27;;
13421;SDS011;6782;55.904;13.396;2024-02-21T12:31:42;10.30;;;3.20;;
13421;SDS011;6782;55.904;13.396;2024-02-21T12:34:30;10.43;;;3.40;;
13421;SDS011;6782;55.904;13.396;2024-02-21T12:37:22;10.70;;;2.87;;
13421;SDS011;6782;55.904;13.396;2024-02-21T12:40:10;9.33;;;2.97;;
13421;SDS011;6782;55.904;13.396;2024-02-21T12:42:58;12.20;;;2.87;;
13421;SDS011;6782;55.904;13.396;2024-02-21T12:45:48;13.60;;;3.33;;
13421;SDS011;6782;55.904;13.396;2024-02-21T12:48:37;12.10;;;3.10;;
13421;SDS011;6782;55.904;13.396;2024-02-21T12:51:25;11.60;;;3.10;;
13421;SDS011;6782;55.904;13.396;2024-02-21T12:54:12;9.63;;;2.80;;
13421;SDS011;6782;55.904;13.396;2024-02-21T12:57:00;8.13;;;2.73;;
13421;SDS011;6782;55.904;13.396;2024-02-21T12:59:48;10.67;;;3.10;;
13421;SDS011;6782;55.904;13.396;2024-02-21T13:02:36;11.90;;;3.03;;
13421;SDS011;6782;55.904;13.396;2024-02-21T13:05:25;9.40;;;3.03;;
13421;SDS011;6782;55.904;13.396;2024-02-21T13:08:13;11.93;;;3.30;;
13421;SDS011;6782;55.904;13.396;2024-02-21T13:11:00;9.10;;;3.00;;
13421;SDS011;6782;55.904;13.396;2024-02-21T13:13:47;9.90;;;2.70;;
13421;SDS011;6782;55.904;13.396;2024-02-21T13:16:34;11.57;;;2.77;;
13421;SDS011;6782;55.904;13.396;2024-02-21T13:19:24;10.40;;;2.93;;
13421;SDS011;6782;55.904;13.396;2024-02-21T13:22:13;9.77;;;2.90;;
13421;SDS011;6782;55.904;13.396;2024-02-21T13:25:00;8.20;;;2.27;;
13421;SDS011;6782;55.904;13.396;2024-02-21T13:27:47;8.20;;;2.90;;
13421;SDS011;6782;55.904;13.396;2024-02-21T13:30:34;7.77;;;2.70;;
13421;SDS011;6782;55.904;13.396;2024-02-21T13:33:21;9.20;;;2.97;;
13421;SDS011;6782;55.904;13.396;2024-02-21T13:36:09;12.23;;;3.10;;
13421;SDS011;6782;55.904;13.396;2024-02-21T13:38:58;11.17;;;2.90;;
13421;SDS011;6782;55.904;13.396;2024-02-21T13:41:46;8.87;;;3.07;;
13421;SDS011;6782;55.904;13.396;2024-02-21T13:44:35;8.63;;;3.27;;
13421;SDS011;6782;55.904;13.396;2024-02-21T13:47:22;9.83;;;2.80;;
13421;SDS011;6782;55.904;13.396;2024-02-21T13:50:10;9.63;;;2.77;;
13421;SDS011;6782;55.904;13.396;2024-02-21T13:52:59;9.47;;;3.20;;
13421;SDS011;6782;55.904;13.396;2024-02-21T13:55:48;11.30;;;3.13;;
13421;SDS011;6782;55.904;13.396;2024-02-21T13:58:36;8.90;;;3.10;;
13421;SDS011;6782;55.904;13.396;2024-02-21T14:01:24;12.20;;;2.87;;
13421;SDS011;6782;55.904;13.396;2024-02-21T14:04:11;6.93;;;2.43;;
13421;SDS011;6782;55.904;13.396;2024-02-21T14:06:59;10.17;;;2.97;;
13421;SDS011;6782;55.904;13.396;2024-02-21T14:09:46;11.03;;;2.77;;
13421;SDS011;6782;55.904;13.396;2024-02-21T14:12:35;9.40;;;2.60;;
13421;SDS011;6782;55.904;13.396;2024-02-21T14:15:26;11.50;;;3.37;;
13421;SDS011;6782;55.904;13.396;2024-02-21T14:18:13;10.87;;;2.90;;
13421;SDS011;6782;55.904;13.396;2024-02-21T14:21:01;9.33;;;2.77;;
13421;SDS011;6782;55.904;13.396;2024-02-21T14:23:49;6.63;;;2.67;;
13421;SDS011;6782;55.904;13.396;2024-02-21T14:26:38;10.90;;;2.83;;
13421;SDS011;6782;55.904;13.396;2024-02-21T14:29:28;8.07;;;2.50;;
13421;SDS011;6782;55.904;13.396;2024-02-21T14:32:15;10.27;;;3.00;;
13421;SDS011;6782;55.904;13.396;2024-02-21T14:35:06;9.83;;;2.80;;
13421;SDS011;6782;55.904;13.396;2024-02-21T14:37:54;10.27;;;2.77;;
13421;SDS011;6782;55.904;13.396;2024-02-21T14:40:42;8.50;;;2.50;;
13421;SDS011;6782;55.904;13.396;2024-02-21T14:43:30;10.27;;;2.70;;
13421;SDS011;6782;55.904;13.396;2024-02-21T14:46:18;10.97;;;3.13;;
13421;SDS011;6782;55.904;13.396;2024-02-21T14:49:05;12.20;;;3.10;;
13421;SDS011;6782;55.904;13.396;2024-02-21T14:51:52;9.17;;;2.60;;
13421;SDS011;6782;55.904;13.396;2024-02-21T14:54:40;8.17;;;3.20;;
13421;SDS011;6782;55.904;13.396;2024-02-21T14:57:30;11.30;;;3.23;;
13421;SDS011;6782;55.904;13.396;2024-02-21T15:00:18;12.90;;;3.27;;
13421;SDS011;6782;55.904;13.396;2024-02-21T15:03:08;18.40;;;3.73;;
13421;SDS011;6782;55.904;13.396;2024-02-21T15:05:55;10.60;;;3.07;;
13421;SDS011;6782;55.904;13.396;2024-02-21T15:08:43;9.43;;;2.97;;
13421;SDS011;6782;55.904;13.396;2024-02-21T15:11:30;8.50;;;2.83;;
13421;SDS011;6782;55.904;13.396;2024-02-21T15:14:17;14.53;;;3.60;;
13421;SDS011;6782;55.904;13.396;2024-02-21T15:17:05;10.67;;;3.10;;
13421;SDS011;6782;55.904;13.396;2024-02-21T15:19:53;9.07;;;3.10;;
13421;SDS011;6782;55.904;13.396;2024-02-21T15:22:41;10.30;;;3.20;;
13421;SDS011;6782;55.904;13.396;2024-02-21T15:25:28;12.53;;;3.33;;
13421;SDS011;6782;55.904;13.396;2024-02-21T15:28:16;17.27;;;3.63;;
13421;SDS011;6782;55.904;13.396;2024-02-21T15:31:03;11.93;;;3.10;;
13421;SDS011;6782;55.904;13.396;2024-02-21T15:33:51;14.10;;;3.53;;
13421;SDS011;6782;55.904;13.396;2024-02-21T15:36:40;13.53;;;3.67;;
13421;SDS011;6782;55.904;13.396;2024-02-21T15:39:28;16.17;;;4.23;;
13421;SDS011;6782;55.904;13.396;2024-02-21T15:42:15;15.93;;;3.80;;
13421;SDS011;6782;55.904;13.396;2024-02-21T15:45:02;15.53;;;4.00;;
13421;SDS011;6782;55.904;13.396;2024-02-21T15:47:50;18.20;;;4.37;;
13421;SDS011;6782;55.904;13.396;2024-02-21T15:50:39;15.90;;;4.00;;
13421;SDS011;6782;55.904;13.396;2024-02-21T15:53:28;13.43;;;4.23;;
13421;SDS011;6782;55.904;13.396;2024-02-21T15:56:15;14.23;;;4.30;;
13421;SDS011;6782;55.904;13.396;2024-02-21T15:59:02;15.80;;;3.67;;
13421;SDS011;6782;55.904;13.396;2024-02-21T16:01:50;16.53;;;4.10;;
13421;SDS011;6782;55.904;13.396;2024-02-21T16:04:37;16.57;;;4.30;;
13421;SDS011;6782;55.904;13.396;2024-02-21T16:07:25;12.70;;;4.07;;
13421;SDS011;6782;55.904;13.396;2024-02-21T16:10:13;13.40;;;3.93;;
13421;SDS011;6782;55.904;13.396;2024-02-21T16:13:00;18.47;;;4.57;;
13421;SDS011;6782;55.904;13.396;2024-02-21T16:15:47;17.57;;;4.33;;
13421;SDS011;6782;55.904;13.396;2024-02-21T16:18:35;19.40;;;4.87;;
13421;SDS011;6782;55.904;13.396;2024-02-21T16:21:22;21.07;;;10.07;;
13421;SDS011;6782;55.904;13.396;2024-02-21T16:24:09;23.37;;;9.53;;
13421;SDS011;6782;55.904;13.396;2024-02-21T16:26:58;20.37;;;8.83;;
13421;SDS011;6782;55.904;13.396;2024-02-21T16:29:47;17.37;;;4.97;;
13421;SDS011;6782;55.904;13.396;2024-02-21T16:32:34;19.20;;;4.97;;
13421;SDS011;6782;55.904;13.396;2024-02-21T16:35:24;16.03;;;5.47;;